Time;durP1;ratioP1;P1;durP2;ratioP2;P2;SDS_P1;SDS_P2;PMS_P1;PMS_P2;Temp;Humidity;BMP_temperature;BMP_pressure;BME280_temperature;BME280_humidity;BME280_pressure;Samples;Min_cycle;Max_cycle;Signal;HPM_P1;HPM_P2
2020/12/24 00:02:46;;;;;;;42.25;26.20;;;;;;;9.38;100.00;100113.84;6250015;28;20464;-72
2020/12/24 00:05:47;;;;;;;37.50;24.08;;;;;;;9.48;100.00;100106.28;6249667;28;20049;-72
2020/12/24 00:08:48;;;;;;;34.10;24.20;;;;;;;9.48;100.00;100105.44;6249399;28;20057;-72
2020/12/24 00:11:49;;;;;;;37.53;25.92;;;;;;;9.38;100.00;100102.53;6249266;28;20418;-72
2020/12/24 00:14:50;;;;;;;39.58;25.83;;;;;;;9.39;100.00;100106.81;6249642;28;20053;-72
2020/12/24 00:17:51;;;;;;;47.03;28.50;;;;;;;9.46;100.00;100107.31;6249309;28;20068;-72
2020/12/24 00:20:52;;;;;;;34.20;24.83;;;;;;;9.53;100.00;100104.22;6248805;28;20128;-72
2020/12/24 00:23:54;;;;;;;31.10;22.27;;;;;;;9.54;100.00;100099.84;6249269;28;20053;-72
2020/12/24 00:26:55;;;;;;;28.27;20.35;;;;;;;9.54;100.00;100091.97;6248981;28;20049;-72
2020/12/24 00:29:56;;;;;;;30.38;17.80;;;;;;;9.54;100.00;100081.50;6249166;28;20053;-72
2020/12/24 00:32:56;;;;;;;24.90;18.75;;;;;;;9.53;100.00;100082.41;6249202;28;20042;-72
2020/12/24 00:35:57;;;;;;;21.50;16.33;;;;;;;9.55;100.00;100072.69;6248922;28;20498;-72
2020/12/24 00:38:59;;;;;;;24.45;14.98;;;;;;;9.53;100.00;100082.41;6248672;28;20057;-73
2020/12/24 00:42:00;;;;;;;21.23;14.15;;;;;;;9.53;100.00;100080.63;6248892;28;20486;-72
2020/12/24 00:45:01;;;;;;;19.00;12.77;;;;;;;9.55;100.00;100080.56;6249004;28;20057;-73
2020/12/24 00:48:02;;;;;;;17.33;12.10;;;;;;;9.55;100.00;100078.75;6248479;28;20073;-72
2020/12/24 00:51:03;;;;;;;20.98;12.15;;;;;;;9.53;100.00;100080.63;6248419;28;20042;-72
2020/12/24 00:54:04;;;;;;;31.02;12.15;;;;;;;9.51;100.00;100072.00;6248726;28;20053;-73
2020/12/24 00:57:05;;;;;;;18.83;10.65;;;;;;;9.61;100.00;100074.91;6248592;28;20046;-72
2020/12/24 01:00:07;;;;;;;12.73;8.13;;;;;;;9.60;100.00;100073.25;6247993;28;20413;-72
2020/12/24 01:03:08;;;;;;;14.60;8.95;;;;;;;9.49;100.00;100075.66;6248661;28;20053;-73
2020/12/24 01:06:09;;;;;;;11.70;7.68;;;;;;;9.43;100.00;100092.59;6248115;28;20097;-75
2020/12/24 01:09:10;;;;;;;13.13;7.55;;;;;;;9.39;100.00;100091.94;6248149;28;20056;-72
2020/12/24 01:12:11;;;;;;;14.00;8.00;;;;;;;9.37;100.00;100091.19;6248417;28;20048;-73
2020/12/24 01:15:12;;;;;;;9.98;6.82;;;;;;;9.36;100.00;100093.91;6247984;28;20457;-73
2020/12/24 01:18:13;;;;;;;13.95;5.53;;;;;;;9.49;100.00;100089.59;6248016;28;20141;-72
2020/12/24 01:21:14;;;;;;;10.90;4.57;;;;;;;9.40;100.00;100088.41;6247605;28;20128;-72
2020/12/24 01:24:16;;;;;;;7.47;3.60;;;;;;;9.23;100.00;100082.44;6248206;28;20506;-72
2020/12/24 01:27:16;;;;;;;10.40;2.83;;;;;;;9.21;100.00;100084.31;6247659;28;20140;-73
2020/12/24 01:30:17;;;;;;;9.85;3.22;;;;;;;9.38;100.00;100089.41;6246879;28;20136;-70
2020/12/24 01:33:18;;;;;;;8.32;2.42;;;;;;;9.15;100.00;100082.88;6247620;28;20119;-70
2020/12/24 01:36:22;;;;;;;8.65;2.90;;;;;;;9.15;100.00;100080.28;6247605;28;20155;-74
2020/12/24 01:39:24;;;;;;;8.63;3.35;;;;;;;9.17;100.00;100077.53;6247038;28;20077;-71
2020/12/24 01:42:24;;;;;;;6.30;2.67;;;;;;;9.33;100.00;100081.81;6247351;28;20050;-69
2020/12/24 01:45:25;;;;;;;7.20;3.25;;;;;;;9.16;100.00;100081.94;6247446;28;20053;-70
2020/12/24 01:48:26;;;;;;;10.10;3.67;;;;;;;9.06;100.00;100083.41;6247017;28;20050;-70
2020/12/24 01:51:28;;;;;;;7.97;3.95;;;;;;;9.02;100.00;100088.00;6246961;28;20185;-70
2020/12/24 01:54:30;;;;;;;6.18;2.90;;;;;;;8.95;100.00;100089.28;6247187;28;20049;-72
2020/12/24 01:57:31;;;;;;;4.75;2.28;;;;;;;8.96;100.00;100083.09;6247064;28;20084;-70
2020/12/24 02:00:32;;;;;;;8.25;2.42;;;;;;;9.10;100.00;100084.94;6246758;28;20054;-70
2020/12/24 02:03:33;;;;;;;7.25;1.67;;;;;;;8.84;100.00;100083.81;6247419;28;20048;-69
2020/12/24 02:06:33;;;;;;;5.70;1.40;;;;;;;8.92;99.92;100080.75;6246779;28;20053;-71
2020/12/24 02:09:35;;;;;;;7.82;1.67;;;;;;;8.75;100.00;100074.69;6246667;28;20084;-69
2020/12/24 02:12:36;;;;;;;10.48;2.13;;;;;;;8.69;100.00;100074.19;6246704;28;20541;-71
2020/12/24 02:15:37;;;;;;;3.08;0.90;;;;;;;8.54;100.00;100060.16;6246682;28;20141;-70
2020/12/24 02:18:38;;;;;;;6.40;1.30;;;;;;;8.53;100.00;100068.97;6246454;28;20461;-70
2020/12/24 02:21:39;;;;;;;4.63;1.10;;;;;;;8.47;100.00;100058.84;6246626;28;20049;-72
2020/12/24 02:24:41;;;;;;;3.75;1.17;;;;;;;8.52;100.00;100056.81;6247000;28;20045;-70
2020/12/24 02:27:42;;;;;;;9.82;1.45;;;;;;;8.45;100.00;100048.47;6246170;28;20053;-70
2020/12/24 02:30:43;;;;;;;5.95;1.25;;;;;;;8.46;100.00;100049.31;6246441;28;20073;-72
2020/12/24 02:33:44;;;;;;;2.65;1.10;;;;;;;8.60;98.11;100057.22;6246454;28;20049;-70
2020/12/24 02:36:45;;;;;;;8.82;1.10;;;;;;;8.60;96.44;100054.59;6246285;28;20053;-70
2020/12/24 02:39:48;;;;;;;5.18;0.90;;;;;;;8.65;95.89;100042.09;6245795;28;20064;-69
2020/12/24 02:42:48;;;;;;;7.63;1.10;;;;;;;8.75;95.52;100060.75;6245415;28;20049;-69
2020/12/24 02:45:49;;;;;;;4.80;1.30;;;;;;;8.72;95.75;100047.81;6245851;28;20076;-69
2020/12/24 02:48:50;;;;;;;6.20;1.30;;;;;;;8.51;96.57;100050.72;6245488;28;20045;-69
2020/12/24 02:51:52;;;;;;;4.75;1.33;;;;;;;8.47;96.99;100057.06;6246344;28;20048;-69
2020/12/24 02:54:53;;;;;;;6.65;1.77;;;;;;;8.48;97.94;100052.66;6246297;28;20053;-69
2020/12/24 02:57:54;;;;;;;6.65;1.55;;;;;;;8.42;97.76;100056.47;6245809;28;20053;-70
2020/12/24 03:00:54;;;;;;;5.72;1.40;;;;;;;8.50;98.53;100048.19;6245606;28;20057;-70
2020/12/24 03:03:55;;;;;;;4.57;1.60;;;;;;;8.49;98.46;100043.88;6246215;28;20053;-70
2020/12/24 03:06:57;;;;;;;7.88;1.80;;;;;;;8.36;98.80;100051.56;6245794;28;20084;-70
2020/12/24 03:09:58;;;;;;;8.18;1.42;;;;;;;8.36;98.91;100055.03;6245519;28;20092;-69
2020/12/24 03:12:59;;;;;;;5.07;1.42;;;;;;;8.35;95.93;100061.16;6245804;28;20041;-69
2020/12/24 03:16:00;;;;;;;3.45;0.80;;;;;;;8.25;92.41;100075.69;6245319;28;20052;-68
2020/12/24 03:19:01;;;;;;;5.00;1.25;;;;;;;7.95;94.92;100048.53;6245925;28;20095;-72
2020/12/24 03:22:02;;;;;;;2.83;0.88;;;;;;;7.65;97.72;100046.66;6245811;28;20403;-69
2020/12/24 03:25:04;;;;;;;3.30;1.05;;;;;;;7.54;98.90;100036.75;6246172;28;20103;-70
2020/12/24 03:28:05;;;;;;;4.43;0.90;;;;;;;7.51;98.64;100051.75;6245542;28;20502;-69
2020/12/24 03:31:05;;;;;;;6.22;1.08;;;;;;;7.40;100.00;100044.44;6245781;28;20100;-69
2020/12/24 03:34:06;;;;;;;3.08;1.08;;;;;;;7.40;98.56;100052.28;6245694;28;20453;-71
2020/12/24 03:37:08;;;;;;;3.25;1.20;;;;;;;7.41;97.61;100048.78;6245594;28;20050;-70
2020/12/24 03:40:09;;;;;;;2.78;0.80;;;;;;;7.34;98.41;100047.38;6245080;28;20056;-70
2020/12/24 03:43:10;;;;;;;4.05;1.20;;;;;;;7.22;98.11;100050.63;6245608;28;20049;-70
2020/12/24 03:46:11;;;;;;;5.13;1.15;;;;;;;7.26;97.89;100044.31;6245479;28;20064;-71
2020/12/24 03:49:11;;;;;;;4.22;1.00;;;;;;;7.26;97.54;100037.31;6244959;28;20049;-70
2020/12/24 03:52:13;;;;;;;3.67;0.80;;;;;;;7.19;98.00;100022.03;6245721;28;20052;-69
2020/12/24 03:55:14;;;;;;;3.72;1.00;;;;;;;7.04;98.67;100034.09;6248000;28;20076;-70
2020/12/24 03:58:15;;;;;;;5.53;0.98;;;;;;;7.03;99.16;100032.41;6249954;28;20140;-70
2020/12/24 04:01:16;;;;;;;6.85;1.25;;;;;;;7.01;98.42;100035.13;6249568;28;20429;-72
2020/12/24 04:04:17;;;;;;;4.53;1.20;;;;;;;7.04;98.73;100034.09;6250111;28;20099;-70
2020/12/24 04:07:19;;;;;;;3.58;1.50;;;;;;;6.99;99.31;100029.09;6249512;28;20052;-70
2020/12/24 04:10:20;;;;;;;5.95;1.30;;;;;;;6.97;99.90;100033.56;6249541;28;20060;-70
2020/12/24 04:13:21;;;;;;;5.35;1.30;;;;;;;6.82;100.00;100042.19;6249450;28;20128;-71
2020/12/24 04:16:23;;;;;;;8.70;1.73;;;;;;;6.78;100.00;100038.88;6247453;28;20041;-71
2020/12/24 04:19:24;;;;;;;6.28;1.48;;;;;;;6.64;100.00;100048.28;6249227;28;20045;-71
2020/12/24 04:22:25;;;;;;;6.93;1.65;;;;;;;6.62;100.00;100043.13;6249251;28;20099;-71
2020/12/24 04:25:26;;;;;;;8.60;1.90;;;;;;;6.57;100.00;100039.91;6249657;28;20046;-71
2020/12/24 04:28:27;;;;;;;4.10;1.85;;;;;;;6.53;100.00;100039.19;6249018;28;20495;-72
2020/12/24 04:31:28;;;;;;;7.88;3.42;;;;;;;6.46;100.00;100034.38;6248954;28;20041;-71
2020/12/24 04:34:29;;;;;;;4.07;2.13;;;;;;;6.46;100.00;100052.63;6249146;28;20115;-72
2020/12/24 04:37:30;;;;;;;2.92;2.08;;;;;;;6.33;100.00;100054.97;6248533;28;20429;-71
2020/12/24 04:40:31;;;;;;;8.73;2.38;;;;;;;6.23;100.00;100051.94;6248600;28;20045;-71
2020/12/24 04:43:32;;;;;;;7.00;2.80;;;;;;;6.10;100.00;100059.50;6249014;28;20041;-71
2020/12/24 04:46:35;;;;;;;4.40;2.40;;;;;;;6.13;100.00;100053.28;6248450;28;20049;-71
2020/12/24 04:49:36;;;;;;;2.80;2.28;;;;;;;6.07;100.00;100057.00;6248452;28;20461;-71
2020/12/24 04:52:38;;;;;;;2.97;2.22;;;;;;;5.81;100.00;100057.31;6248938;28;20052;-72
2020/12/24 04:55:38;;;;;;;4.53;3.05;;;;;;;5.77;100.00;100064.44;6248574;28;20053;-71
2020/12/24 04:58:41;;;;;;;4.07;2.63;;;;;;;5.78;100.00;100065.28;6248162;28;20490;-71
2020/12/24 05:01:42;;;;;;;5.40;3.03;;;;;;;5.70;100.00;100075.19;6248416;28;20417;-71
2020/12/24 05:04:43;;;;;;;3.75;2.72;;;;;;;5.62;100.00;100085.09;6248335;28;20049;-70
2020/12/24 05:07:45;;;;;;;4.35;2.53;;;;;;;5.48;100.00;100076.13;6246915;28;20086;-70
2020/12/24 05:11:03;;;;;;;3.75;2.47;;;;;;;5.31;100.00;100076.00;6248177;28;20054;-70
2020/12/24 05:14:19;;;;;;;1.42;1.10;;;;;;;5.15;100.00;100082.78;6248354;28;20422;-71
2020/12/24 05:17:22;;;;;;;1.95;0.90;;;;;;;4.98;100.00;100093.88;6248044;28;20052;-71
2020/12/24 05:20:38;;;;;;;3.28;1.40;;;;;;;4.96;100.00;100093.13;6247666;28;20071;-71
2020/12/24 05:23:39;;;;;;;2.75;2.10;;;;;;;4.88;100.00;100101.22;6248164;28;20045;-71
2020/12/24 05:26:41;;;;;;;3.13;1.90;;;;;;;4.87;100.00;100109.94;6247542;28;20057;-70
2020/12/24 05:29:44;;;;;;;4.05;1.52;;;;;;;4.64;100.00;100116.06;6247852;28;20050;-71
2020/12/24 05:32:45;;;;;;;1.17;1.05;;;;;;;4.46;100.00;100127.19;6247704;28;20607;-70
2020/12/24 05:35:46;;;;;;;0.95;0.90;;;;;;;4.20;100.00;100125.56;6242131;28;20108;-71
2020/12/24 05:38:50;;;;;;;0.80;0.80;;;;;;;4.04;100.00;100120.06;6246129;28;20136;-71
2020/12/24 05:41:51;;;;;;;0.65;0.65;;;;;;;4.01;100.00;100118.44;6247613;28;20049;-70
2020/12/24 05:44:52;;;;;;;2.15;0.65;;;;;;;3.85;100.00;100127.69;6247676;28;20060;-70
2020/12/24 05:48:09;;;;;;;1.42;0.60;;;;;;;3.80;100.00;100142.59;6247209;28;20053;-70
2020/12/24 05:51:17;;;;;;;0.43;0.40;;;;;;;3.56;100.00;100136.50;6247397;28;20056;-71
2020/12/24 05:54:19;;;;;;;0.30;0.30;;;;;;;3.29;100.00;100161.66;6247318;28;20064;-70
2020/12/24 05:57:20;;;;;;;0.30;0.30;;;;;;;3.16;100.00;100179.38;6247150;28;20054;-71
2020/12/24 06:00:21;;;;;;;0.65;0.22;;;;;;;2.87;100.00;100185.47;6246922;28;20052;-70
2020/12/24 06:03:35;;;;;;;1.40;0.28;;;;;;;2.63;100.00;100191.41;6247304;28;20049;-70
2020/12/24 06:06:45;;;;;;;0.20;0.20;;;;;;;2.56;100.00;100182.13;6246672;28;20061;-70
2020/12/24 06:09:48;;;;;;;0.28;0.13;;;;;;;2.49;100.00;100199.59;6222382;28;20057;-71
2020/12/24 06:12:51;;;;;;;1.98;0.45;;;;;;;2.48;100.00;100201.31;6222335;28;20046;-71
2020/12/24 06:15:54;;;;;;;0.35;0.30;;;;;;;2.45;100.00;100211.81;6222267;28;20137;-71
2020/12/24 06:18:59;;;;;;;0.45;0.25;;;;;;;2.32;100.00;100228.59;6221722;28;20112;-71
2020/12/24 06:22:00;;;;;;;0.40;0.40;;;;;;;2.35;100.00;100225.91;6222407;28;20049;-71
2020/12/24 06:25:02;;;;;;;0.35;0.35;;;;;;;2.23;100.00;100240.06;6222131;28;20053;-71
2020/12/24 06:28:10;;;;;;;0.40;0.40;;;;;;;2.35;100.00;100241.47;6221837;28;20088;-71
2020/12/24 06:31:12;;;;;;;0.50;0.50;;;;;;;2.41;100.00;100253.44;6221829;28;20062;-70
2020/12/24 06:34:23;;;;;;;0.30;0.30;;;;;;;2.34;100.00;100257.06;6222257;28;20049;-70
2020/12/24 06:37:24;;;;;;;4.95;0.60;;;;;;;2.18;100.00;100260.09;6229035;28;20041;-70
2020/12/24 06:40:30;;;;;;;2.38;0.90;;;;;;;2.23;100.00;100260.81;6246410;28;20091;-71
2020/12/24 06:43:39;;;;;;;12.02;0.90;;;;;;;2.38;100.00;100271.66;6246323;28;20513;-70
2020/12/24 06:46:56;;;;;;;1.67;0.63;;;;;;;2.40;100.00;100273.28;6246049;28;20081;-70
2020/12/24 06:49:57;;;;;;;1.60;0.65;;;;;;;2.59;100.00;100276.25;6245970;28;20049;-70
2020/12/24 06:53:18;;;;;;;0.68;0.60;;;;;;;2.56;100.00;100285.84;6246475;28;20046;-70
2020/12/24 06:56:22;;;;;;;1.00;0.70;;;;;;;2.49;100.00;100290.34;6246067;28;20045;-70
2020/12/24 06:59:23;;;;;;;0.63;0.63;;;;;;;2.52;100.00;100298.06;6245946;28;20046;-71
2020/12/24 07:02:24;;;;;;;0.70;0.55;;;;;;;2.50;100.00;100311.06;6246250;28;20543;-70
2020/12/24 07:05:45;;;;;;;0.43;0.40;;;;;;;2.65;100.00;100314.97;6246292;28;20049;-72
2020/12/24 07:08:48;;;;;;;0.85;0.40;;;;;;;2.69;100.00;100319.19;6245300;28;20045;-70
2020/12/24 07:11:52;;;;;;;0.70;0.50;;;;;;;2.54;100.00;100327.38;6246384;28;20041;-71
2020/12/24 07:14:53;;;;;;;0.30;0.30;;;;;;;2.63;100.00;100329.72;6246140;28;20103;-70
2020/12/24 07:17:57;;;;;;;0.45;0.40;;;;;;;2.77;100.00;100343.19;6246133;28;20054;-70
2020/12/24 07:21:01;;;;;;;0.68;0.50;;;;;;;2.77;100.00;100347.50;6245516;28;20490;-70
2020/12/24 07:24:02;;;;;;;2.17;0.70;;;;;;;2.60;100.00;100363.53;6245891;28;20110;-70
2020/12/24 07:27:05;;;;;;;0.57;0.45;;;;;;;2.57;100.00;100355.84;6245746;28;20676;-72
2020/12/24 07:30:08;;;;;;;0.50;0.50;;;;;;;2.54;100.00;100369.75;6248228;28;20114;-70
2020/12/24 07:33:08;;;;;;;1.13;0.50;;;;;;;2.42;100.00;100375.25;6250616;28;20418;-71
2020/12/24 07:36:09;;;;;;;1.50;0.57;;;;;;;2.56;100.00;100384.41;6249875;28;20057;-71
2020/12/24 07:39:10;;;;;;;1.23;0.90;;;;;;;2.59;100.00;100384.31;6250185;28;20057;-70
2020/12/24 07:42:12;;;;;;;1.00;0.68;;;;;;;2.58;100.00;100393.84;6250326;28;20051;-70
2020/12/24 07:45:23;;;;;;;1.75;1.00;;;;;;;2.51;100.00;100394.91;6250600;28;20061;-70
2020/12/24 07:48:24;;;;;;;4.07;0.98;;;;;;;2.60;100.00;100412.84;6249943;28;20084;-70
2020/12/24 07:51:25;;;;;;;3.42;1.23;;;;;;;2.71;100.00;100418.56;6250027;28;20099;-70
2020/12/24 07:54:29;;;;;;;2.58;1.40;;;;;;;2.68;100.00;100422.97;6250188;28;20579;-70
2020/12/24 07:57:31;;;;;;;4.13;1.70;;;;;;;2.78;100.00;100432.25;6249907;28;20045;-70
2020/12/24 08:00:38;;;;;;;2.75;1.83;;;;;;;2.60;100.00;100440.53;6249721;28;20461;-72
2020/12/24 08:03:39;;;;;;;4.13;1.60;;;;;;;2.77;100.00;100446.97;6250130;28;20056;-72
2020/12/24 08:06:39;;;;;;;4.00;1.75;;;;;;;2.78;100.00;100447.81;6249408;28;20045;-69
2020/12/24 08:09:40;;;;;;;4.57;3.03;;;;;;;2.70;100.00;100442.81;6248904;28;20050;-72
2020/12/24 08:12:42;;;;;;;9.27;3.90;;;;;;;2.69;100.00;100441.13;6248353;28;20050;-72
2020/12/24 08:15:46;;;;;;;6.50;2.50;;;;;;;2.93;100.00;100444.81;6249304;28;20049;-72
2020/12/24 08:18:51;;;;;;;5.38;2.92;;;;;;;2.80;100.00;100453.81;6249017;28;20128;-72
2020/12/24 08:22:00;;;;;;;5.28;2.92;;;;;;;2.81;100.00;100458.09;6249495;28;20111;-72
2020/12/24 08:25:01;;;;;;;4.90;2.80;;;;;;;2.95;100.00;100455.13;6249688;28;20494;-71
2020/12/24 08:28:03;;;;;;;13.02;3.40;;;;;;;2.92;100.00;100465.63;6249196;28;20426;-71
2020/12/24 08:31:08;;;;;;;8.88;3.03;;;;;;;3.03;100.00;100479.16;6249155;28;20049;-71
2020/12/24 08:34:10;;;;;;;10.55;3.72;;;;;;;2.85;100.00;100472.69;6249198;28;20100;-71
2020/12/24 08:37:10;;;;;;;8.82;3.30;;;;;;;2.96;100.00;100481.06;6248738;28;20054;-70
2020/12/24 08:40:19;;;;;;;7.50;3.17;;;;;;;2.99;100.00;100495.69;6248752;28;20050;-70
2020/12/24 08:43:27;;;;;;;7.30;2.90;;;;;;;3.07;100.00;100495.50;6249356;28;20046;-72
2020/12/24 08:46:28;;;;;;;8.07;2.80;;;;;;;2.92;100.00;100497.63;6248663;28;20056;-73
2020/12/24 08:49:29;;;;;;;6.32;3.40;;;;;;;2.91;100.00;100506.31;6248768;28;20045;-73
2020/12/24 08:52:36;;;;;;;7.28;3.13;;;;;;;3.10;100.00;100511.00;6248947;28;20049;-72
2020/12/24 08:55:37;;;;;;;6.47;2.97;;;;;;;3.00;100.00;100518.19;6249113;28;20046;-72
2020/12/24 08:58:48;;;;;;;6.60;3.25;;;;;;;3.01;100.00;100519.88;6248163;28;20049;-72
2020/12/24 09:01:48;;;;;;;8.35;2.90;;;;;;;3.16;100.00;100529.88;6248667;28;20045;-72
2020/12/24 09:04:52;;;;;;;7.53;2.40;;;;;;;3.06;100.00;100536.19;6248680;28;20049;-72
2020/12/24 09:07:53;;;;;;;6.70;2.60;;;;;;;3.01;100.00;100538.06;6245006;28;20048;-71
2020/12/24 09:10:55;;;;;;;9.07;3.38;;;;;;;3.13;100.00;100549.84;6223660;28;20422;-71
2020/12/24 09:13:57;;;;;;;7.70;2.40;;;;;;;3.04;100.00;100551.81;6223819;28;20041;-71
2020/12/24 09:17:01;;;;;;;7.53;2.13;;;;;;;3.26;100.00;100557.28;6223381;28;20053;-69
2020/12/24 09:20:06;;;;;;;6.80;3.25;;;;;;;3.04;100.00;100557.00;6230665;28;20046;-70
2020/12/24 09:23:11;;;;;;;6.13;2.60;;;;;;;3.00;100.00;100563.16;6248059;28;20048;-71
2020/12/24 09:26:12;;;;;;;9.02;4.40;;;;;;;3.02;100.00;100574.34;6247587;28;20049;-70
2020/12/24 09:29:14;;;;;;;5.97;3.47;;;;;;;3.07;100.00;100571.63;6247790;28;20084;-70
2020/12/24 09:32:15;;;;;;;9.35;4.07;;;;;;;3.17;100.00;100570.50;6247912;28;20049;-70
2020/12/24 09:35:16;;;;;;;9.07;2.90;;;;;;;3.29;100.00;100582.34;6246949;28;20076;-70
2020/12/24 09:38:17;;;;;;;6.53;2.40;;;;;;;3.31;100.00;100588.31;6247520;28;20052;-70
2020/12/24 09:41:17;;;;;;;7.50;2.42;;;;;;;3.35;100.00;100596.91;6247086;28;20056;-70
2020/12/24 09:44:19;;;;;;;5.15;2.58;;;;;;;3.35;100.00;100597.75;6247434;28;20045;-70
2020/12/24 09:47:21;;;;;;;3.72;2.45;;;;;;;3.23;100.00;100604.13;6246018;28;20053;-70
2020/12/24 09:50:23;;;;;;;6.07;2.50;;;;;;;3.35;100.00;100602.94;6247054;28;20049;-70
2020/12/24 09:53:24;;;;;;;10.18;3.20;;;;;;;3.30;100.00;100607.41;6246969;28;20083;-70
2020/12/24 09:56:25;;;;;;;6.60;2.80;;;;;;;3.40;100.00;100608.00;6247156;28;20057;-70
2020/12/24 09:59:27;;;;;;;6.32;2.53;;;;;;;3.41;100.00;100613.19;6246986;28;20448;-70
2020/12/24 10:02:28;;;;;;;7.90;3.10;;;;;;;3.47;100.00;100623.41;6247232;28;20051;-71
2020/12/24 10:05:28;;;;;;;7.05;2.58;;;;;;;3.50;100.00;100615.53;6246752;28;20498;-70
2020/12/24 10:08:29;;;;;;;5.85;2.30;;;;;;;3.56;100.00;100617.13;6246797;28;20046;-70
2020/12/24 10:11:30;;;;;;;3.83;1.80;;;;;;;3.63;100.00;100621.25;6245529;28;20409;-70
2020/12/24 10:14:32;;;;;;;5.22;2.10;;;;;;;3.56;100.00;100628.38;6245638;28;20041;-70
2020/12/24 10:17:33;;;;;;;6.70;2.45;;;;;;;3.51;100.00;100629.38;6246546;28;20060;-70
2020/12/24 10:20:33;;;;;;;6.00;2.50;;;;;;;3.66;100.00;100631.56;6241221;28;20050;-71
2020/12/24 10:23:34;;;;;;;6.65;2.53;;;;;;;3.76;100.00;100634.75;6246105;28;20494;-70
2020/12/24 10:26:35;;;;;;;7.32;2.63;;;;;;;3.66;100.00;100633.31;6240484;28;20045;-71
2020/12/24 10:29:37;;;;;;;7.15;2.35;;;;;;;3.72;100.00;100640.94;6245732;28;20141;-71
2020/12/24 10:32:40;;;;;;;4.60;2.53;;;;;;;3.84;100.00;100647.56;6245487;28;20159;-70
2020/12/24 10:35:41;;;;;;;5.03;2.20;;;;;;;3.84;100.00;100645.81;6244910;28;20045;-71
2020/12/24 10:38:42;;;;;;;5.00;2.63;;;;;;;3.75;100.00;100639.13;6245984;28;20049;-71
2020/12/24 10:41:48;;;;;;;9.02;2.88;;;;;;;4.01;100.00;100643.59;6242329;28;20052;-70
2020/12/24 10:44:50;;;;;;;5.38;2.58;;;;;;;3.79;100.00;100642.50;6240407;28;20049;-72
2020/12/24 10:47:51;;;;;;;12.65;2.83;;;;;;;3.94;100.00;100642.06;6245737;28;20461;-72
2020/12/24 10:50:55;;;;;;;4.72;2.47;;;;;;;4.16;99.28;100637.09;6267279;22;20099;-70
2020/12/24 10:53:56;;;;;;;7.28;2.95;;;;;;;3.93;99.90;100645.56;6237777;28;20076;-70
2020/12/24 10:56:56;;;;;;;7.68;3.72;;;;;;;3.85;100.00;100642.31;6246237;28;20053;-70
2020/12/24 10:59:58;;;;;;;6.95;3.70;;;;;;;3.82;100.00;100647.63;6245737;28;20060;-71
2020/12/24 11:02:59;;;;;;;9.55;3.40;;;;;;;3.88;100.00;100649.19;6246215;28;20050;-70
2020/12/24 11:06:00;;;;;;;10.73;4.47;;;;;;;3.94;100.00;100649.84;6241499;28;20053;-70
2020/12/24 11:09:01;;;;;;;9.88;3.13;;;;;;;4.12;100.00;100647.66;6244803;28;20049;-70
2020/12/24 11:12:01;;;;;;;8.15;3.83;;;;;;;4.05;100.00;100650.44;6251285;28;20049;-70
2020/12/24 11:15:03;;;;;;;13.27;4.03;;;;;;;4.26;98.75;100642.91;6250972;28;20414;-71
2020/12/24 11:18:04;;;;;;;7.05;3.63;;;;;;;4.18;100.00;100645.75;6250987;28;20045;-70
2020/12/24 11:21:06;;;;;;;5.78;3.42;;;;;;;4.22;99.76;100651.69;6250445;28;20049;-70
2020/12/24 11:24:07;;;;;;;11.38;3.70;;;;;;;4.04;99.96;100648.72;6251128;28;20046;-70
2020/12/24 11:27:08;;;;;;;11.65;4.35;;;;;;;4.16;100.00;100651.88;6250576;28;20460;-70
2020/12/24 11:30:10;;;;;;;6.45;3.72;;;;;;;4.17;99.88;100666.56;6250335;28;20053;-70
2020/12/24 11:33:11;;;;;;;13.60;3.90;;;;;;;4.38;98.87;100665.09;6250910;28;20050;-70
2020/12/24 11:36:12;;;;;;;11.23;5.28;;;;;;;4.25;97.90;100657.66;6231623;28;20109;-69
2020/12/24 11:39:12;;;;;;;11.00;5.93;;;;;;;4.17;99.29;100654.41;6225734;28;20061;-70
2020/12/24 11:42:14;;;;;;;15.07;8.00;;;;;;;4.22;99.98;100652.53;6225772;28;20403;-70
2020/12/24 11:45:15;;;;;;;13.02;8.38;;;;;;;4.13;99.96;100657.13;6226119;28;20046;-70
2020/12/24 11:48:16;;;;;;;20.45;9.70;;;;;;;4.39;100.00;100654.66;6225591;28;20053;-68
2020/12/24 11:51:19;;;;;;;22.45;10.98;;;;;;;4.17;100.00;100659.63;6225468;28;20414;-70
2020/12/24 11:54:20;;;;;;;16.92;10.27;;;;;;;4.31;100.00;100652.28;6225702;28;20045;-69
2020/12/24 11:57:21;;;;;;;20.90;10.40;;;;;;;4.35;100.00;100654.78;6225235;28;20078;-70
2020/12/24 12:00:22;;;;;;;24.77;10.30;;;;;;;4.33;99.97;100652.25;6225136;28;20046;-70
2020/12/24 12:03:23;;;;;;;19.88;10.07;;;;;;;4.46;99.28;100652.75;6225436;28;20054;-69
2020/12/24 12:06:24;;;;;;;17.73;9.32;;;;;;;4.43;98.31;100639.81;6224978;28;20088;-69
2020/12/24 12:09:25;;;;;;;20.23;9.10;;;;;;;4.55;98.20;100649.84;6224895;28;20450;-69
2020/12/24 12:12:25;;;;;;;18.60;9.15;;;;;;;4.37;98.64;100633.03;6225440;28;20049;-69
2020/12/24 12:15:27;;;;;;;18.27;9.20;;;;;;;4.46;97.59;100640.56;6224716;28;20513;-69
2020/12/24 12:18:28;;;;;;;16.08;9.77;;;;;;;4.37;98.28;100645.19;6225050;28;20096;-69
2020/12/24 12:21:29;;;;;;;18.38;9.05;;;;;;;4.43;98.57;100642.41;6224544;28;20453;-69
2020/12/24 12:24:30;;;;;;;20.75;10.52;;;;;;;4.51;98.35;100643.88;6224904;28;20093;-69
2020/12/24 12:27:31;;;;;;;18.08;9.32;;;;;;;4.39;98.86;100648.59;6224613;28;20050;-68
2020/12/24 12:30:33;;;;;;;17.00;8.48;;;;;;;4.40;99.43;100648.53;6223853;28;20072;-69
2020/12/24 12:33:34;;;;;;;16.52;8.00;;;;;;;4.66;98.47;100658.19;6213097;28;20050;-68
2020/12/24 12:36:35;;;;;;;17.33;7.68;;;;;;;4.54;98.96;100653.34;6206323;28;20493;-69
2020/12/24 12:39:36;;;;;;;16.40;7.13;;;;;;;4.54;98.76;100654.22;6198971;28;20100;-70
2020/12/24 12:42:37;;;;;;;15.38;6.53;;;;;;;4.73;98.05;100657.09;6196565;28;20061;-70
2020/12/24 12:45:39;;;;;;;14.80;7.32;;;;;;;4.71;98.23;100660.66;6200116;28;20061;-71
2020/12/24 12:48:40;;;;;;;14.18;6.40;;;;;;;4.72;97.68;100660.59;6211617;28;20057;-70
2020/12/24 12:51:41;;;;;;;8.82;5.82;;;;;;;4.56;98.22;100672.38;6223692;28;20046;-69
2020/12/24 12:54:42;;;;;;;9.40;5.10;;;;;;;4.62;96.97;100676.53;6224273;28;20399;-70
2020/12/24 12:57:43;;;;;;;20.85;5.60;;;;;;;4.80;96.80;100682.03;6223868;28;20105;-70
2020/12/24 13:00:45;;;;;;;15.30;5.70;;;;;;;4.79;97.36;100685.53;6223596;28;20053;-70
2020/12/24 13:03:47;;;;;;;16.48;5.10;;;;;;;4.77;97.83;100691.72;6225517;28;20050;-70
2020/12/24 13:06:48;;;;;;;13.15;5.65;;;;;;;4.75;97.66;100703.91;6240119;28;20049;-68
2020/12/24 13:09:49;;;;;;;13.90;5.25;;;;;;;4.86;97.15;100695.75;6239496;28;20432;-70
2020/12/24 13:12:49;;;;;;;11.77;5.63;;;;;;;4.68;97.08;100702.38;6239564;28;20046;-70
2020/12/24 13:15:51;;;;;;;12.38;4.70;;;;;;;4.79;97.51;100702.91;6211985;28;20069;-70
2020/12/24 13:18:52;;;;;;;11.77;5.38;;;;;;;4.70;98.13;100698.00;6219193;28;20046;-70
2020/12/24 13:21:54;;;;;;;18.67;4.72;;;;;;;4.86;97.53;100716.59;6215721;28;20065;-70
2020/12/24 13:24:54;;;;;;;14.75;4.18;;;;;;;4.77;98.05;100712.53;6195404;28;20054;-70
2020/12/24 13:27:56;;;;;;;12.15;4.55;;;;;;;4.74;98.32;100720.44;6194316;28;20047;-69
2020/12/24 13:30:58;;;;;;;13.40;5.20;;;;;;;4.77;98.50;100729.00;6194937;28;20054;-70
2020/12/24 13:33:59;;;;;;;18.75;4.00;;;;;;;4.90;98.40;100721.66;6202960;28;20084;-70
2020/12/24 13:37:00;;;;;;;18.05;3.85;;;;;;;4.76;97.76;100724.69;6212117;28;20046;-70
2020/12/24 13:40:00;;;;;;;14.60;4.70;;;;;;;4.71;98.58;100728.31;6218785;28;20061;-70
2020/12/24 13:43:01;;;;;;;11.45;3.65;;;;;;;4.87;98.56;100723.53;6221250;28;20442;-70
2020/12/24 13:46:03;;;;;;;13.00;4.80;;;;;;;4.83;98.44;100736.63;6234912;28;20081;-69
2020/12/24 13:49:04;;;;;;;12.68;4.05;;;;;;;4.77;97.71;100741.19;6235010;28;20419;-69
2020/12/24 13:52:04;;;;;;;9.20;4.07;;;;;;;4.67;98.58;100739.72;6229677;28;20053;-70
2020/12/24 13:55:05;;;;;;;16.20;3.92;;;;;;;4.89;97.67;100730.38;6230369;28;20068;-70
2020/12/24 13:58:06;;;;;;;14.10;4.03;;;;;;;4.86;97.02;100755.66;6236289;28;20061;-69
2020/12/24 14:01:09;;;;;;;15.10;5.03;;;;;;;4.72;98.12;100753.44;6222133;28;20053;-68
2020/12/24 14:04:10;;;;;;;10.02;3.85;;;;;;;4.79;97.65;100760.19;6215715;28;20099;-69
2020/12/24 14:07:11;;;;;;;17.73;5.30;;;;;;;4.77;98.42;100769.81;6228553;28;20446;-68